createdAt,value
2018-07-22T00:00:52.008Z,95.98
2018-07-22T00:01:52.011Z,95.50
2018-07-22T00:02:52.015Z,96.08
2018-07-22T00:03:52.019Z,95.50
2018-07-22T00:04:52.022Z,95.70
2018-07-22T00:05:52.025Z,95.98
2018-07-22T00:06:52.027Z,96.85
2018-07-22T00:07:52.033Z,96.66
2018-07-22T00:08:52.035Z,97.19
2018-07-22T00:09:52.040Z,97.38
2018-07-22T00:10:52.041Z,97.28
2018-07-22T00:11:52.045Z,97.28
2018-07-22T00:12:52.049Z,97.09
2018-07-22T00:13:52.052Z,96.99
2018-07-22T00:14:52.056Z,97.47
2018-07-22T00:15:52.059Z,96.90
2018-07-22T00:16:52.062Z,97.19
2018-07-22T00:17:52.066Z,97.28
2018-07-22T00:18:52.069Z,96.90
2018-07-22T00:19:52.072Z,97.19
2018-07-22T00:20:52.077Z,97.09
2018-07-22T00:21:52.080Z,97.57
2018-07-22T00:22:52.083Z,97.57
2018-07-22T00:23:52.085Z,97.09
2018-07-22T00:24:52.092Z,97.57
2018-07-22T00:25:52.092Z,98.05
2018-07-22T00:26:52.096Z,97.96
2018-07-22T00:27:52.102Z,98.14
2018-07-22T00:28:52.101Z,98.53
2018-07-22T00:29:52.106Z,98.05
2018-07-22T00:30:52.108Z,98.53
2018-07-22T00:31:52.111Z,98.44
2018-07-22T00:32:52.117Z,99.21
2018-07-22T00:33:52.119Z,98.82
2018-07-22T00:34:52.120Z,99.11
2018-07-22T00:35:52.124Z,99.21
2018-07-22T00:36:52.128Z,99.30
2018-07-22T00:37:52.131Z,99.30
2018-07-22T00:38:52.134Z,99.21
2018-07-22T00:39:52.136Z,99.21
2018-07-22T00:40:52.143Z,99.40
2018-07-22T00:41:52.144Z,99.06
2018-07-22T00:42:52.147Z,99.83
2018-07-22T00:43:52.149Z,99.44
2018-07-22T00:44:52.153Z,99.25
2018-07-22T00:45:52.157Z,99.73
2018-07-22T00:46:52.159Z,99.99
2018-07-22T00:47:52.160Z,99.99
2018-07-22T00:48:52.165Z,99.99
2018-07-22T00:49:52.169Z,99.99
2018-07-22T00:50:52.170Z,99.99
2018-07-22T00:51:52.175Z,99.99
2018-07-22T00:52:52.177Z,99.99
2018-07-22T00:53:52.179Z,99.99
2018-07-22T00:54:52.182Z,99.99
2018-07-22T00:55:52.186Z,99.99
2018-07-22T00:56:52.189Z,99.99
2018-07-22T00:57:52.192Z,99.99
2018-07-22T00:58:52.195Z,99.99
2018-07-22T00:59:52.203Z,99.99
2018-07-22T01:00:52.201Z,99.99
2018-07-22T01:01:52.204Z,99.99
2018-07-22T01:02:52.210Z,99.99
2018-07-22T01:03:52.212Z,99.99
2018-07-22T01:04:52.213Z,99.99
2018-07-22T01:05:52.216Z,99.99
2018-07-22T01:06:52.219Z,99.99
2018-07-22T01:07:52.222Z,99.99
2018-07-22T01:08:52.224Z,99.99
2018-07-22T01:09:52.227Z,99.99
2018-07-22T01:10:52.229Z,99.99
2018-07-22T01:11:52.234Z,99.99
2018-07-22T01:12:52.240Z,99.99
2018-07-22T01:13:52.240Z,99.99
2018-07-22T01:14:52.240Z,99.99
2018-07-22T01:15:52.245Z,99.99
2018-07-22T01:16:52.248Z,99.99
2018-07-22T01:17:52.250Z,99.99
2018-07-22T01:18:52.252Z,99.99
2018-07-22T01:19:52.255Z,99.99
2018-07-22T01:20:52.258Z,99.99
2018-07-22T01:21:52.260Z,99.99
2018-07-22T01:22:52.263Z,99.99
2018-07-22T01:23:52.266Z,99.99
2018-07-22T01:24:52.268Z,99.99
2018-07-22T01:25:52.275Z,99.99
2018-07-22T01:26:52.274Z,99.99
2018-07-22T01:27:52.278Z,99.99
2018-07-22T01:28:52.279Z,99.99
2018-07-22T01:29:52.283Z,99.99
2018-07-22T01:30:52.284Z,99.99
2018-07-22T01:31:52.289Z,99.99
2018-07-22T01:32:52.292Z,99.99
2018-07-22T01:33:52.292Z,99.99
2018-07-22T01:34:52.296Z,99.99
2018-07-22T01:35:52.298Z,99.99
2018-07-22T01:36:52.300Z,99.99
2018-07-22T01:37:52.303Z,99.99
2018-07-22T01:38:52.307Z,99.99
2018-07-22T01:39:52.308Z,99.99
2018-07-22T01:40:52.312Z,99.99
2018-07-22T01:41:52.317Z,99.99
2018-07-22T01:42:52.316Z,99.99
2018-07-22T01:43:52.318Z,99.99
2018-07-22T01:44:52.321Z,99.99
2018-07-22T01:45:52.325Z,99.99
2018-07-22T01:46:52.325Z,99.99
2018-07-22T01:47:52.328Z,99.99
2018-07-22T01:48:52.331Z,99.99
2018-07-22T01:49:52.335Z,99.99
2018-07-22T01:50:52.338Z,99.99
2018-07-22T01:51:52.338Z,99.99
2018-07-22T01:52:52.341Z,99.99
2018-07-22T01:53:52.344Z,99.99
2018-07-22T01:54:52.344Z,99.99
2018-07-22T01:55:52.348Z,99.99
2018-07-22T01:56:52.351Z,99.99
2018-07-22T01:57:52.354Z,99.99
2018-07-22T01:58:52.355Z,99.99
2018-07-22T01:59:52.357Z,99.99
2018-07-22T02:00:52.360Z,99.99
2018-07-22T02:01:52.362Z,99.99
2018-07-22T02:02:52.364Z,99.99
2018-07-22T02:03:52.368Z,99.99
2018-07-22T02:04:52.370Z,99.99
2018-07-22T02:05:52.372Z,99.99
2018-07-22T02:06:52.374Z,99.99
2018-07-22T02:07:52.376Z,99.99
2018-07-22T02:08:52.379Z,99.99
2018-07-22T02:09:52.380Z,99.99
2018-07-22T02:10:52.383Z,99.99
2018-07-22T02:11:52.384Z,99.99
2018-07-22T02:12:52.387Z,99.99
2018-07-22T02:13:52.390Z,99.99
2018-07-22T02:14:52.392Z,99.99
2018-07-22T02:15:52.395Z,99.99
2018-07-22T02:16:52.394Z,99.99
2018-07-22T02:17:52.398Z,99.99
2018-07-22T02:18:52.400Z,99.99
2018-07-22T02:19:52.401Z,99.99
2018-07-22T02:20:52.447Z,99.99
2018-07-22T02:21:52.406Z,99.99
2018-07-22T02:22:52.407Z,99.99
2018-07-22T02:23:52.409Z,99.99
2018-07-22T02:24:52.413Z,99.99
2018-07-22T02:25:52.415Z,99.99
2018-07-22T02:26:52.415Z,99.99
2018-07-22T02:27:52.418Z,99.99
2018-07-22T02:28:52.421Z,99.99
2018-07-22T02:29:52.422Z,99.99
2018-07-22T02:30:52.425Z,99.99
2018-07-22T02:31:52.427Z,99.99
2018-07-22T02:32:52.428Z,99.99
2018-07-22T02:33:52.431Z,99.99
2018-07-22T02:34:52.437Z,99.99
2018-07-22T02:35:52.436Z,99.99
2018-07-22T02:36:52.438Z,99.99
2018-07-22T02:37:52.440Z,99.99
2018-07-22T02:38:52.441Z,99.99
2018-07-22T02:39:52.445Z,99.99
2018-07-22T02:40:52.448Z,99.99
2018-07-22T02:41:52.449Z,99.99
2018-07-22T02:42:52.447Z,99.99
2018-07-22T02:43:52.452Z,99.99
2018-07-22T02:44:52.452Z,99.99
2018-07-22T02:45:52.456Z,99.99
2018-07-22T02:46:52.456Z,99.99
2018-07-22T02:47:52.458Z,99.99
2018-07-22T02:48:52.461Z,99.99
2018-07-22T02:49:52.464Z,99.99
2018-07-22T02:50:52.464Z,99.99
2018-07-22T02:51:52.468Z,99.99
2018-07-22T02:52:52.473Z,99.99
2018-07-22T02:53:52.475Z,99.99
2018-07-22T02:54:52.472Z,99.99
2018-07-22T02:55:52.474Z,99.99
2018-07-22T02:56:52.476Z,99.99
2018-07-22T02:57:52.478Z,99.99
2018-07-22T02:58:52.481Z,99.99
2018-07-22T02:59:52.483Z,99.99
2018-07-22T03:00:52.484Z,99.99
2018-07-22T03:01:52.490Z,99.99
2018-07-22T03:02:52.487Z,99.99
2018-07-22T03:03:52.489Z,99.99
2018-07-22T03:04:52.491Z,99.99
2018-07-22T03:05:52.493Z,99.99
2018-07-22T03:06:52.495Z,99.99
2018-07-22T03:07:52.496Z,99.99
2018-07-22T03:08:52.499Z,99.99
2018-07-22T03:09:52.502Z,99.99
2018-07-22T03:10:52.501Z,99.99
2018-07-22T03:11:52.503Z,99.99
2018-07-22T03:12:52.505Z,99.99
2018-07-22T03:13:52.507Z,99.99
2018-07-22T03:14:52.509Z,99.99
2018-07-22T03:15:52.512Z,99.99
2018-07-22T03:16:52.519Z,99.99
2018-07-22T03:17:52.514Z,99.99
2018-07-22T03:18:52.516Z,99.99
2018-07-22T03:19:52.517Z,99.99
2018-07-22T03:20:52.519Z,99.99
2018-07-22T03:21:52.522Z,99.99
2018-07-22T03:22:52.520Z,99.99
2018-07-22T03:23:52.523Z,99.99
2018-07-22T03:24:52.525Z,99.99
2018-07-22T03:25:52.527Z,99.99
2018-07-22T03:26:52.528Z,99.99
2018-07-22T03:27:52.531Z,99.99
2018-07-22T03:28:52.531Z,99.99
2018-07-22T03:29:52.535Z,99.99
2018-07-22T03:30:52.536Z,99.99
2018-07-22T03:31:52.541Z,99.99
2018-07-22T03:32:52.538Z,99.99
2018-07-22T03:33:52.541Z,99.99
2018-07-22T03:34:52.546Z,99.99
2018-07-22T03:35:52.543Z,99.99
2018-07-22T03:36:52.544Z,99.99
2018-07-22T03:37:52.548Z,99.99
2018-07-22T03:38:52.548Z,99.99
2018-07-22T03:39:52.550Z,99.99
2018-07-22T03:40:52.552Z,99.99
2018-07-22T03:41:52.554Z,99.99
2018-07-22T03:42:52.555Z,99.99
2018-07-22T03:43:52.557Z,99.99
2018-07-22T03:44:52.560Z,99.99
2018-07-22T03:45:52.563Z,99.99
2018-07-22T03:46:52.562Z,99.99
2018-07-22T03:47:52.564Z,99.99
2018-07-22T03:48:52.569Z,99.99
2018-07-22T03:49:52.568Z,99.99
2018-07-22T03:50:52.570Z,99.99
2018-07-22T03:51:52.571Z,99.99
2018-07-22T03:52:52.573Z,99.99
2018-07-22T03:53:52.575Z,99.99
2018-07-22T03:54:52.576Z,99.99
2018-07-22T03:55:52.579Z,99.99
2018-07-22T03:56:52.581Z,99.99
2018-07-22T03:57:52.581Z,99.99
2018-07-22T03:58:52.582Z,99.99
2018-07-22T03:59:52.587Z,99.99
2018-07-22T04:00:52.588Z,99.99
2018-07-22T04:01:52.593Z,99.99
2018-07-22T04:02:52.591Z,99.99
2018-07-22T04:03:52.592Z,99.99
2018-07-22T04:04:52.594Z,99.99
2018-07-22T04:05:52.596Z,99.99
2018-07-22T04:06:52.602Z,99.99
2018-07-22T04:07:52.603Z,99.99
2018-07-22T04:08:52.602Z,99.99
2018-07-22T04:09:52.606Z,99.99
2018-07-22T04:10:52.605Z,99.99
2018-07-22T04:11:52.611Z,99.99
2018-07-22T04:12:52.609Z,99.99
2018-07-22T04:13:52.612Z,99.99
2018-07-22T04:14:52.613Z,99.99
2018-07-22T04:15:52.614Z,99.99
2018-07-22T04:16:52.617Z,99.99
2018-07-22T04:17:52.620Z,99.99
2018-07-22T04:18:52.620Z,99.99
2018-07-22T04:19:52.623Z,99.99
2018-07-22T04:20:52.624Z,99.99
2018-07-22T04:21:52.627Z,99.99
2018-07-22T04:22:52.629Z,99.99
2018-07-22T04:23:52.632Z,99.99
2018-07-22T04:24:52.636Z,99.99
2018-07-22T04:25:52.635Z,99.99
2018-07-22T04:26:52.636Z,99.99
2018-07-22T04:27:52.638Z,99.99
2018-07-22T04:28:52.641Z,99.99
2018-07-22T04:29:52.642Z,99.99
2018-07-22T04:30:52.644Z,99.99
2018-07-22T04:31:52.647Z,99.99
2018-07-22T04:32:52.650Z,99.99
2018-07-22T04:33:52.652Z,99.99
2018-07-22T04:34:52.652Z,99.99
2018-07-22T04:35:52.655Z,99.99
2018-07-22T04:36:52.657Z,99.99
2018-07-22T04:37:52.661Z,99.99
2018-07-22T04:38:52.660Z,99.99
2018-07-22T04:39:52.662Z,99.99
2018-07-22T04:40:52.745Z,99.99
2018-07-22T04:41:52.667Z,99.99
2018-07-22T04:42:52.669Z,99.99
2018-07-22T04:43:52.672Z,99.99
2018-07-22T04:44:52.673Z,99.99
2018-07-22T04:45:52.677Z,99.99
2018-07-22T04:46:52.677Z,99.99
2018-07-22T04:47:52.679Z,99.99
2018-07-22T04:48:52.695Z,99.99
2018-07-22T04:49:52.685Z,99.99
2018-07-22T04:50:52.688Z,99.99
2018-07-22T04:51:52.688Z,99.99
2018-07-22T04:52:52.692Z,99.99
2018-07-22T04:53:52.693Z,99.99
2018-07-22T04:54:52.695Z,99.99
2018-07-22T04:55:52.697Z,99.99
2018-07-22T04:56:52.700Z,99.99
2018-07-22T04:57:52.701Z,99.99
2018-07-22T04:58:52.703Z,99.99
2018-07-22T04:59:52.707Z,99.99
2018-07-22T05:00:52.710Z,99.99
2018-07-22T05:01:52.712Z,99.99
2018-07-22T05:02:52.713Z,99.99
2018-07-22T05:03:52.717Z,99.99
2018-07-22T05:04:52.719Z,99.99
2018-07-22T05:05:52.721Z,99.99
2018-07-22T05:06:52.726Z,99.99
2018-07-22T05:07:52.725Z,99.99
2018-07-22T05:08:52.728Z,99.99
2018-07-22T05:09:52.731Z,99.99
2018-07-22T05:10:52.731Z,99.99
2018-07-22T05:11:52.735Z,99.99
2018-07-22T05:12:52.737Z,99.99
2018-07-22T05:13:52.741Z,99.99
2018-07-22T05:14:52.741Z,99.99
2018-07-22T05:15:52.746Z,99.99
2018-07-22T05:16:52.748Z,99.99
2018-07-22T05:17:52.749Z,99.99
2018-07-22T05:18:52.753Z,99.99
2018-07-22T05:19:52.754Z,99.99
2018-07-22T05:20:52.758Z,99.99
2018-07-22T05:21:52.759Z,99.99
2018-07-22T05:22:52.762Z,99.99
2018-07-22T05:23:52.765Z,99.99
2018-07-22T05:24:52.768Z,99.99
2018-07-22T05:25:52.770Z,99.99
2018-07-22T05:26:52.773Z,99.99
2018-07-22T05:27:52.774Z,99.99
2018-07-22T05:28:52.777Z,99.99
2018-07-22T05:29:52.783Z,99.99
2018-07-22T05:30:52.782Z,99.99
2018-07-22T05:31:52.785Z,99.99
2018-07-22T05:32:52.788Z,99.99
2018-07-22T05:33:52.790Z,99.99
2018-07-22T05:34:52.793Z,99.99
2018-07-22T05:35:52.796Z,99.99
2018-07-22T05:36:52.799Z,99.99
2018-07-22T05:37:52.801Z,99.99
2018-07-22T05:38:52.804Z,99.99
2018-07-22T05:39:52.839Z,99.99
2018-07-22T05:40:52.808Z,99.99
2018-07-22T05:41:52.815Z,99.99
2018-07-22T05:42:52.814Z,99.99
2018-07-22T05:43:52.817Z,99.99
2018-07-22T05:44:52.820Z,99.99
2018-07-22T05:45:52.823Z,99.99
2018-07-22T05:46:52.827Z,99.99
2018-07-22T05:47:52.832Z,99.99
2018-07-22T05:48:52.831Z,99.99
2018-07-22T05:49:52.834Z,99.99
2018-07-22T05:50:52.838Z,99.99
2018-07-22T05:51:52.841Z,99.99
2018-07-22T05:52:52.844Z,99.99
2018-07-22T05:53:52.852Z,99.99
2018-07-22T05:54:52.849Z,99.99
2018-07-22T05:55:52.852Z,99.99
2018-07-22T05:56:52.855Z,99.99
2018-07-22T05:57:52.863Z,99.99
2018-07-22T05:58:52.861Z,99.99
2018-07-22T05:59:52.865Z,99.99
2018-07-22T06:00:52.867Z,99.99
2018-07-22T06:01:52.870Z,99.99
2018-07-22T06:02:52.873Z,99.99
2018-07-22T06:03:52.875Z,99.99
2018-07-22T06:04:52.881Z,99.99
2018-07-22T06:05:52.883Z,99.99
2018-07-22T06:06:52.884Z,99.99
2018-07-22T06:07:52.892Z,99.99
2018-07-22T06:08:52.889Z,99.99
2018-07-22T06:09:52.895Z,99.99
2018-07-22T06:10:52.896Z,99.99
2018-07-22T06:11:52.924Z,99.99
2018-07-22T06:12:52.905Z,99.99
2018-07-22T06:13:52.906Z,99.99
2018-07-22T06:14:52.909Z,99.99
2018-07-22T06:15:52.913Z,99.99
2018-07-22T06:16:52.916Z,99.99
2018-07-22T06:17:52.919Z,99.99
2018-07-22T06:18:52.951Z,99.99
2018-07-22T06:19:52.926Z,99.99
2018-07-22T06:20:52.928Z,99.99
2018-07-22T06:21:52.931Z,99.99
2018-07-22T06:22:52.932Z,99.99
2018-07-22T06:23:52.938Z,99.99
2018-07-22T06:24:52.942Z,99.99
2018-07-22T06:25:52.945Z,99.99
2018-07-22T06:26:52.947Z,99.99
2018-07-22T06:27:52.949Z,99.99
2018-07-22T06:28:52.953Z,99.99
2018-07-22T06:29:52.957Z,99.99
2018-07-22T06:30:52.960Z,99.99
2018-07-22T06:31:52.961Z,99.99
2018-07-22T06:32:52.966Z,99.99
2018-07-22T06:33:52.970Z,99.99
2018-07-22T06:34:52.972Z,99.99
2018-07-22T06:35:52.976Z,99.99
2018-07-22T06:36:52.980Z,99.99
2018-07-22T06:37:52.984Z,99.99
2018-07-22T06:38:52.987Z,99.99
2018-07-22T06:39:52.989Z,99.99
2018-07-22T06:40:52.993Z,99.99
2018-07-22T06:41:52.997Z,99.99
2018-07-22T06:42:53.000Z,99.99
2018-07-22T06:43:53.007Z,99.93
2018-07-22T06:44:53.007Z,99.99
2018-07-22T06:45:53.011Z,99.44
2018-07-22T06:46:53.014Z,99.99
2018-07-22T06:47:53.020Z,98.44
2018-07-22T06:48:53.022Z,98.44
2018-07-22T06:49:53.028Z,96.89
2018-07-22T06:50:53.026Z,96.42
2018-07-22T06:51:53.032Z,97.76
2018-07-22T06:52:53.033Z,97.47
2018-07-22T06:53:53.040Z,94.40
2018-07-22T06:54:53.043Z,92.57
2018-07-22T06:55:53.046Z,91.41
2018-07-22T06:56:53.050Z,93.43
2018-07-22T06:57:53.056Z,94.54
2018-07-22T06:58:53.057Z,95.94
2018-07-22T06:59:53.062Z,95.65
2018-07-22T07:00:53.089Z,93.77
2018-07-22T07:01:53.070Z,93.87
2018-07-22T07:02:53.073Z,93.87
2018-07-22T07:03:53.076Z,90.78
2018-07-22T07:04:53.085Z,89.63
2018-07-22T07:05:53.086Z,90.78
2018-07-22T07:06:53.089Z,93.15
2018-07-22T07:07:53.092Z,93.29
2018-07-22T07:08:53.095Z,93.38
2018-07-22T07:09:53.101Z,90.78
2018-07-22T07:10:53.138Z,91.17
2018-07-22T07:11:53.109Z,90.11
2018-07-22T07:12:53.112Z,88.85
2018-07-22T07:13:53.118Z,89.58
2018-07-22T07:14:53.120Z,88.71
2018-07-22T07:15:53.124Z,88.61
2018-07-22T07:16:53.128Z,86.69
2018-07-22T07:17:53.133Z,86.74
2018-07-22T07:18:53.136Z,87.46
2018-07-22T07:19:53.142Z,87.41
2018-07-22T07:20:53.199Z,86.49
2018-07-22T07:21:53.150Z,85.72
2018-07-22T07:22:53.154Z,86.01
2018-07-22T07:23:53.158Z,86.40
2018-07-22T07:24:53.163Z,86.44
2018-07-22T07:25:53.168Z,86.15
2018-07-22T07:26:53.175Z,84.90
2018-07-22T07:27:53.175Z,84.70
2018-07-22T07:28:53.181Z,84.42
2018-07-22T07:29:53.185Z,83.74
2018-07-22T07:30:53.190Z,84.42
2018-07-22T07:31:53.195Z,83.36
2018-07-22T07:32:53.200Z,82.29
2018-07-22T07:33:53.203Z,81.91
2018-07-22T07:34:53.213Z,82.14
2018-07-22T07:35:53.213Z,81.33
2018-07-22T07:36:53.217Z,79.31
2018-07-22T07:37:53.223Z,79.50
2018-07-22T07:38:53.227Z,79.93
2018-07-22T07:39:53.231Z,78.96
2018-07-22T07:40:53.239Z,78.96
2018-07-22T07:41:53.246Z,78.96
2018-07-22T07:42:53.245Z,78.96
2018-07-22T07:43:53.252Z,78.67
2018-07-22T07:44:53.256Z,78.67
2018-07-22T07:45:53.262Z,78.61
2018-07-22T07:46:53.265Z,77.46
2018-07-22T07:47:53.270Z,76.43
2018-07-22T07:48:53.276Z,75.22
2018-07-22T07:49:53.284Z,74.00
2018-07-22T07:50:53.287Z,73.74
2018-07-22T07:51:53.294Z,71.88
2018-07-22T07:52:53.302Z,70.01
2018-07-22T07:53:53.312Z,69.02
2018-07-22T07:54:53.317Z,68.34
2018-07-22T07:55:53.327Z,66.63
2018-07-22T07:56:53.334Z,66.20
2018-07-22T07:57:53.341Z,66.50
2018-07-22T07:58:53.350Z,66.72
2018-07-22T07:59:53.361Z,65.05
2018-07-22T08:00:53.375Z,63.95
2018-07-22T08:01:53.383Z,63.59
2018-07-22T08:02:53.391Z,61.90
2018-07-22T08:03:53.426Z,60.48
2018-07-22T08:04:53.413Z,60.61
2018-07-22T08:05:53.424Z,60.71
2018-07-22T08:06:53.437Z,59.61
2018-07-22T08:07:53.447Z,60.55
2018-07-22T08:08:53.464Z,61.45
2018-07-22T08:09:53.476Z,60.87
2018-07-22T08:10:53.484Z,61.42
2018-07-22T08:11:53.497Z,60.19
2018-07-22T08:12:53.511Z,59.74
2018-07-22T08:13:53.524Z,59.38
2018-07-22T08:14:53.537Z,57.59
2018-07-22T08:15:53.550Z,56.35
2018-07-22T08:16:53.564Z,55.60
2018-07-22T08:17:53.578Z,55.03
2018-07-22T08:18:56.438Z,56.39
2018-07-22T08:19:53.605Z,56.97
2018-07-22T08:20:53.618Z,56.97
2018-07-22T08:21:53.665Z,56.85
2018-07-22T08:22:53.648Z,57.75
2018-07-22T08:23:53.661Z,56.65
2018-07-22T08:24:53.675Z,57.76
2018-07-22T08:25:53.688Z,57.57
2018-07-22T08:26:53.701Z,56.07
2018-07-22T08:27:53.716Z,53.61
2018-07-22T08:28:53.734Z,53.91
2018-07-22T08:29:53.744Z,53.54
2018-07-22T08:30:53.758Z,52.06
2018-07-22T08:31:53.785Z,50.82
2018-07-22T08:32:53.791Z,51.89
2018-07-22T08:33:53.801Z,51.21
2018-07-22T08:34:53.817Z,50.73
2018-07-22T08:35:53.830Z,50.85
2018-07-22T08:36:53.845Z,50.38
2018-07-22T08:37:53.861Z,50.48
2018-07-22T08:38:53.873Z,49.24
2018-07-22T08:39:53.886Z,50.51
2018-07-22T08:40:53.900Z,52.09
2018-07-22T08:41:53.916Z,51.23
2018-07-22T08:42:53.929Z,50.70
2018-07-22T08:43:53.944Z,49.07
2018-07-22T08:44:53.959Z,47.63
2018-07-22T08:45:53.973Z,47.56
2018-07-22T08:46:53.990Z,46.97
2018-07-22T08:47:54.001Z,47.29
2018-07-22T08:48:54.018Z,47.46
2018-07-22T08:49:54.033Z,47.83
2018-07-22T08:50:54.047Z,48.75
2018-07-22T08:51:54.067Z,50.48
2018-07-22T08:52:54.076Z,51.17
2018-07-22T08:53:54.091Z,50.60
2018-07-22T08:54:54.104Z,50.14
2018-07-22T08:55:54.120Z,49.34
2018-07-22T08:56:54.135Z,50.82
2018-07-22T08:57:54.152Z,50.29
2018-07-22T08:58:54.166Z,49.85
2018-07-22T08:59:54.177Z,48.51
2018-07-22T09:00:54.192Z,47.85
2018-07-22T09:01:54.208Z,46.41
2018-07-22T09:02:54.222Z,46.24
2018-07-22T09:03:54.237Z,45.26
2018-07-22T09:04:54.254Z,44.82
2018-07-22T09:05:54.267Z,42.87
2018-07-22T09:06:54.281Z,43.85
2018-07-22T09:07:54.298Z,45.19
2018-07-22T09:08:54.312Z,44.12
2018-07-22T09:09:54.327Z,44.41
2018-07-22T09:10:54.342Z,44.02
2018-07-22T09:11:54.358Z,44.41
2018-07-22T09:12:54.372Z,44.80
2018-07-22T09:13:54.387Z,44.95
2018-07-22T09:14:54.401Z,45.81
2018-07-22T09:15:54.418Z,46.14
2018-07-22T09:16:54.431Z,45.29
2018-07-22T09:17:54.555Z,45.92
2018-07-22T09:18:54.462Z,46.39
2018-07-22T09:19:54.480Z,46.53
2018-07-22T09:20:54.492Z,45.92
2018-07-22T09:21:54.508Z,44.80
2018-07-22T09:22:54.522Z,45.09
2018-07-22T09:23:54.537Z,46.31
2018-07-22T09:24:54.552Z,46.47
2018-07-22T09:25:54.567Z,47.34
2018-07-22T09:26:54.594Z,48.10
2018-07-22T09:27:54.597Z,47.75
2018-07-22T09:28:54.612Z,47.68
2018-07-22T09:29:54.628Z,46.12
2018-07-22T09:30:54.643Z,47.42
2018-07-22T09:31:54.659Z,49.24
2018-07-22T09:32:54.672Z,48.71
2018-07-22T09:33:54.690Z,48.83
2018-07-22T09:34:54.702Z,46.80
2018-07-22T09:35:54.782Z,46.24
2018-07-22T09:36:54.733Z,46.02
2018-07-22T09:37:54.747Z,45.95
2018-07-22T09:38:54.762Z,45.85
2018-07-22T09:39:54.777Z,46.88
2018-07-22T09:40:54.791Z,47.27
2018-07-22T09:41:54.845Z,47.09
2018-07-22T09:42:54.821Z,47.07
2018-07-22T09:43:54.836Z,47.83
2018-07-22T09:44:54.851Z,48.56
2018-07-22T09:45:54.865Z,50.29
2018-07-22T09:46:54.879Z,50.58
2018-07-22T09:47:54.894Z,50.21
2018-07-22T09:48:54.910Z,50.09
2018-07-22T09:49:54.923Z,50.87
2018-07-22T09:50:54.937Z,50.90
2018-07-22T09:51:54.956Z,50.34
2018-07-22T09:52:54.967Z,49.02
2018-07-22T09:53:54.980Z,48.07
2018-07-22T09:54:54.993Z,46.95
2018-07-22T09:55:55.007Z,45.21
2018-07-22T09:56:55.023Z,44.82
2018-07-22T09:57:55.036Z,45.61
2018-07-22T09:58:55.049Z,45.02
2018-07-22T09:59:55.063Z,44.48
2018-07-22T10:00:55.079Z,44.73
2018-07-22T10:01:55.093Z,46.44
2018-07-22T10:02:55.106Z,47.90
2018-07-22T10:03:55.120Z,46.90
2018-07-22T10:04:55.148Z,48.49
2018-07-22T10:05:55.148Z,50.36
2018-07-22T10:06:55.162Z,50.63
2018-07-22T10:07:55.175Z,51.19
2018-07-22T10:08:55.189Z,51.02
2018-07-22T10:09:55.204Z,50.63
2018-07-22T10:10:55.217Z,50.31
2018-07-22T10:11:55.234Z,51.02
2018-07-22T10:12:55.245Z,50.46
2018-07-22T10:13:55.264Z,48.39
2018-07-22T10:14:55.272Z,47.24
2018-07-22T10:15:55.287Z,46.31
2018-07-22T10:16:55.304Z,44.84
2018-07-22T10:17:55.315Z,45.51
2018-07-22T10:18:55.327Z,46.75
2018-07-22T10:19:55.341Z,46.97
2018-07-22T10:20:55.356Z,47.05
2018-07-22T10:21:55.370Z,47.24
2018-07-22T10:22:55.383Z,47.92
2018-07-22T10:23:55.396Z,48.02
2018-07-22T10:24:55.415Z,47.53
2018-07-22T10:25:55.428Z,48.02
2018-07-22T10:26:55.438Z,46.75
2018-07-22T10:27:55.453Z,47.29
2018-07-22T10:28:55.467Z,48.49
2018-07-22T10:29:55.483Z,46.95
2018-07-22T10:30:55.496Z,46.97
2018-07-22T10:31:55.508Z,46.70
2018-07-22T10:32:55.522Z,45.43
2018-07-22T10:33:55.536Z,46.39
2018-07-22T10:34:55.550Z,46.60
2018-07-22T10:35:55.630Z,46.01
2018-07-22T10:36:55.579Z,46.46
2018-07-22T10:37:55.593Z,46.92
2018-07-22T10:38:55.606Z,46.75
2018-07-22T10:39:55.622Z,48.02
2018-07-22T10:40:55.637Z,46.46
2018-07-22T10:41:55.650Z,47.22
2018-07-22T10:42:55.663Z,47.41
2018-07-22T10:43:55.680Z,47.07
2018-07-22T10:44:55.694Z,46.48
2018-07-22T10:45:55.706Z,46.53
2018-07-22T10:46:55.721Z,48.85
2018-07-22T10:47:55.734Z,48.54
2018-07-22T10:48:55.749Z,48.85
2018-07-22T10:49:55.763Z,48.85
2018-07-22T10:50:55.806Z,47.92
2018-07-22T10:51:55.791Z,46.75
2018-07-22T10:52:55.807Z,46.09
2018-07-22T10:53:55.821Z,45.92
2018-07-22T10:54:55.836Z,45.92
2018-07-22T10:55:55.848Z,45.53
2018-07-22T10:56:55.861Z,47.97
2018-07-22T10:57:55.876Z,48.44
2018-07-22T10:58:55.889Z,50.82
2018-07-22T10:59:55.903Z,50.87
2018-07-22T11:00:55.919Z,49.15
2018-07-22T11:01:55.931Z,48.75
2018-07-22T11:02:55.945Z,47.22
2018-07-22T11:03:55.960Z,47.71
2018-07-22T11:04:55.975Z,46.95
2018-07-22T11:05:55.987Z,46.85
2018-07-22T11:06:56.002Z,48.00
2018-07-22T11:07:56.015Z,48.27
2018-07-22T11:08:56.034Z,48.78
2018-07-22T11:09:56.044Z,48.68
2018-07-22T11:10:56.057Z,47.49
2018-07-22T11:11:56.072Z,48.46
2018-07-22T11:12:56.085Z,47.41
2018-07-22T11:13:56.098Z,48.95
2018-07-22T11:14:56.120Z,50.26
2018-07-22T11:15:56.125Z,51.82
2018-07-22T11:16:56.140Z,50.97
2018-07-22T11:17:56.152Z,49.27
2018-07-22T11:18:56.165Z,49.02
2018-07-22T11:19:56.178Z,47.67
2018-07-22T11:20:56.231Z,47.46
2018-07-22T11:21:56.210Z,48.83
2018-07-22T11:22:56.219Z,50.46
2018-07-22T11:23:56.232Z,49.83
2018-07-22T11:24:56.246Z,49.12
2018-07-22T11:25:56.260Z,49.22
2018-07-22T11:26:56.273Z,49.29
2018-07-22T11:27:56.287Z,49.27
2018-07-22T11:28:56.316Z,49.95
2018-07-22T11:29:56.313Z,50.24
2018-07-22T11:30:56.324Z,51.55
2018-07-22T11:31:56.338Z,53.01
2018-07-22T11:32:56.351Z,53.11
2018-07-22T11:33:56.365Z,52.98
2018-07-22T11:34:56.377Z,53.67
2018-07-22T11:35:56.422Z,53.77
2018-07-22T11:36:56.401Z,53.50
2018-07-22T11:37:56.413Z,53.79
2018-07-22T11:38:56.425Z,53.01
2018-07-22T11:39:56.437Z,53.89
2018-07-22T11:40:56.452Z,53.42
2018-07-22T11:41:56.463Z,53.04
2018-07-22T11:42:56.477Z,53.14
2018-07-22T11:43:56.500Z,53.23
2018-07-22T11:44:56.499Z,51.09
2018-07-22T11:45:56.512Z,50.78
2018-07-22T11:46:56.521Z,50.78
2018-07-22T11:47:56.537Z,50.31
2018-07-22T11:48:56.546Z,50.68
2018-07-22T11:49:56.558Z,51.45
2018-07-22T11:50:56.567Z,51.75
2018-07-22T11:51:56.581Z,50.97
2018-07-22T11:52:56.595Z,51.36
2018-07-22T11:53:56.605Z,51.07
2018-07-22T11:54:56.615Z,51.84
2018-07-22T11:55:56.628Z,50.65
2018-07-22T11:56:56.638Z,51.14
2018-07-22T11:57:56.651Z,51.07
2018-07-22T11:58:56.662Z,50.92
2018-07-22T11:59:56.671Z,49.97
2018-07-22T12:00:56.720Z,49.22
2018-07-22T12:01:56.694Z,49.27
2018-07-22T12:02:56.705Z,49.24
2018-07-22T12:03:56.716Z,50.58
2018-07-22T12:04:56.728Z,50.68
2018-07-22T12:05:56.748Z,50.70
2018-07-22T12:06:56.751Z,50.43
2018-07-22T12:07:56.761Z,50.24
2018-07-22T12:08:56.772Z,50.34
2018-07-22T12:09:56.788Z,50.51
2018-07-22T12:10:56.794Z,50.70
2018-07-22T12:11:56.805Z,50.58
2018-07-22T12:12:56.818Z,50.41
2018-07-22T12:13:56.829Z,50.43
2018-07-22T12:14:56.839Z,50.60
2018-07-22T12:15:56.850Z,51.29
2018-07-22T12:16:56.860Z,52.06
2018-07-22T12:17:56.872Z,51.19
2018-07-22T12:18:56.881Z,51.02
2018-07-22T12:19:56.895Z,49.19
2018-07-22T12:20:56.905Z,48.68
2018-07-22T12:21:56.915Z,49.92
2018-07-22T12:22:56.927Z,50.43
2018-07-22T12:23:56.936Z,50.24
2018-07-22T12:24:56.947Z,50.43
2018-07-22T12:25:56.958Z,50.92
2018-07-22T12:26:56.971Z,50.12
2018-07-22T12:27:56.978Z,51.07
2018-07-22T12:28:56.991Z,50.87
2018-07-22T12:29:57.011Z,50.65
2018-07-22T12:30:57.012Z,52.11
2018-07-22T12:31:57.023Z,51.72
2018-07-22T12:32:57.034Z,51.75
2018-07-22T12:33:57.047Z,51.94
2018-07-22T12:34:57.055Z,52.59
2018-07-22T12:35:57.066Z,52.53
2018-07-22T12:36:57.077Z,52.43
2018-07-22T12:37:57.091Z,51.55
2018-07-22T12:38:57.099Z,51.87
2018-07-22T12:39:57.108Z,51.58
2018-07-22T12:40:57.119Z,50.82
2018-07-22T12:41:57.132Z,50.73
2018-07-22T12:42:57.144Z,50.75
2018-07-22T12:43:57.151Z,50.63
2018-07-22T12:44:57.162Z,50.90
2018-07-22T12:45:57.173Z,51.29
2018-07-22T12:46:57.182Z,52.38
2018-07-22T12:47:57.195Z,50.73
2018-07-22T12:48:57.204Z,50.99
2018-07-22T12:49:57.215Z,51.02
2018-07-22T12:50:57.224Z,51.31
2018-07-22T12:51:57.236Z,50.82
2018-07-22T12:52:57.247Z,50.82